createdAt,value
2018-08-10T00:01:06.320Z,6.90
2018-08-10T00:03:39.061Z,7.40
2018-08-10T00:06:11.955Z,10.70
2018-08-10T00:08:55.898Z,6.53
2018-08-10T00:11:27.172Z,10.20
2018-08-10T00:14:03.516Z,13.37
2018-08-10T00:16:39.389Z,12.67
2018-08-10T00:19:10.170Z,20.70
2018-08-10T00:21:40.412Z,11.10
2018-08-10T00:24:15.018Z,14.87
2018-08-10T00:27:11.101Z,7.83
2018-08-10T00:29:45.575Z,10.23
2018-08-10T00:32:18.982Z,14.17
2018-08-10T00:34:53.220Z,6.67
2018-08-10T00:37:24.895Z,9.60
2018-08-10T00:39:56.186Z,9.67
2018-08-10T00:42:31.268Z,39.70
2018-08-10T00:45:01.758Z,9.07
2018-08-10T00:47:32.470Z,11.57
2018-08-10T00:50:13.135Z,9.70
2018-08-10T00:52:59.353Z,7.63
2018-08-10T00:55:29.786Z,8.90
2018-08-10T00:58:00.191Z,18.63
2018-08-10T01:00:32.852Z,14.17
2018-08-10T01:03:02.666Z,14.60
2018-08-10T01:05:31.938Z,11.50
2018-08-10T01:08:01.466Z,14.40
2018-08-10T01:10:32.034Z,57.63
2018-08-10T01:13:01.999Z,19.10
2018-08-10T01:15:34.194Z,8.87
2018-08-10T01:18:04.109Z,8.60
2018-08-10T01:20:33.365Z,10.73
2018-08-10T01:23:06.711Z,13.13
2018-08-10T01:25:36.397Z,8.70
2018-08-10T01:28:06.602Z,11.20
2018-08-10T01:30:38.021Z,7.73
2018-08-10T01:33:07.786Z,8.93
2018-08-10T01:35:37.438Z,6.33
2018-08-10T01:38:07.133Z,6.80
2018-08-10T01:40:37.066Z,4.53
2018-08-10T01:43:06.536Z,10.87
2018-08-10T01:45:36.057Z,11.80
2018-08-10T01:48:05.729Z,16.43
2018-08-10T01:50:35.079Z,7.80
2018-08-10T01:53:05.083Z,11.67
2018-08-10T01:55:34.715Z,12.10
2018-08-10T01:58:03.849Z,7.70
2018-08-10T02:00:34.310Z,14.43
2018-08-10T02:03:04.753Z,8.43
2018-08-10T02:05:49.302Z,9.73
2018-08-10T02:08:20.976Z,10.50
2018-08-10T02:11:00.557Z,6.17
2018-08-10T02:13:39.404Z,5.83
2018-08-10T02:16:10.117Z,12.87
2018-08-10T02:18:43.179Z,11.70
2018-08-10T02:21:12.604Z,12.23
2018-08-10T02:23:42.005Z,13.23
2018-08-10T02:26:11.611Z,6.50
2018-08-10T02:28:42.678Z,7.47
2018-08-10T02:31:12.306Z,8.87
2018-08-10T02:33:41.859Z,21.47
2018-08-10T02:36:10.970Z,6.93
2018-08-10T02:38:42.784Z,9.90
2018-08-10T02:41:12.006Z,8.10
2018-08-10T02:43:42.649Z,10.80
2018-08-10T02:46:13.367Z,7.27
2018-08-10T02:48:42.720Z,13.63
2018-08-10T02:51:12.148Z,8.00
2018-08-10T02:53:42.748Z,11.73
2018-08-10T02:56:13.208Z,8.37
2018-08-10T02:58:42.906Z,8.83
2018-08-10T03:01:12.804Z,10.00
2018-08-10T03:03:42.996Z,22.83
2018-08-10T03:06:18.341Z,11.60
2018-08-10T03:09:10.792Z,9.83
2018-08-10T03:11:41.435Z,13.07
2018-08-10T03:14:14.370Z,17.87
2018-08-10T03:16:43.517Z,11.43
2018-08-10T03:19:12.969Z,13.10
2018-08-10T03:21:51.636Z,9.57
2018-08-10T03:24:27.604Z,12.60
2018-08-10T03:27:01.052Z,9.23
2018-08-10T03:29:30.202Z,19.23
2018-08-10T03:31:59.829Z,10.50
2018-08-10T03:34:29.905Z,14.27
2018-08-10T03:36:59.665Z,15.37
2018-08-10T03:39:29.122Z,11.13
2018-08-10T03:41:58.203Z,8.60
2018-08-10T03:44:27.886Z,13.57
2018-08-10T03:46:57.294Z,9.20
2018-08-10T03:49:26.650Z,14.40
2018-08-10T03:51:55.897Z,13.23
2018-08-10T03:54:25.209Z,14.83
2018-08-10T03:56:54.431Z,12.03
2018-08-10T03:59:24.602Z,8.87
2018-08-10T04:01:54.284Z,11.43
2018-08-10T04:04:23.532Z,15.13
2018-08-10T04:06:52.934Z,13.53
2018-08-10T04:09:22.192Z,14.10
2018-08-10T04:11:51.914Z,10.50
2018-08-10T04:14:21.135Z,21.53
2018-08-10T04:16:50.295Z,12.10
2018-08-10T04:19:19.812Z,17.47
2018-08-10T04:21:49.248Z,11.63
2018-08-10T04:24:19.701Z,15.70
2018-08-10T04:26:49.144Z,17.37
2018-08-10T04:29:19.335Z,16.90
2018-08-10T04:31:49.073Z,13.43
2018-08-10T04:34:18.506Z,16.33
2018-08-10T04:36:48.167Z,9.77
2018-08-10T04:39:17.770Z,14.27
2018-08-10T04:41:47.180Z,10.50
2018-08-10T04:44:17.171Z,8.40
2018-08-10T04:47:02.888Z,5.30
2018-08-10T04:49:52.511Z,9.80
2018-08-10T04:52:25.381Z,9.57
2018-08-10T04:54:57.252Z,7.10
2018-08-10T04:57:26.676Z,9.73
2018-08-10T04:59:57.918Z,8.13
2018-08-10T05:02:27.398Z,5.90
2018-08-10T05:04:57.135Z,9.57
2018-08-10T05:07:26.720Z,10.43
2018-08-10T05:09:56.629Z,37.63
2018-08-10T05:12:27.559Z,12.60
2018-08-10T05:15:04.522Z,11.93
2018-08-10T05:18:16.601Z,16.20
2018-08-10T05:20:46.941Z,6.60
2018-08-10T05:23:16.162Z,9.20
2018-08-10T05:25:45.591Z,12.80
2018-08-10T05:28:15.218Z,9.67
2018-08-10T05:30:44.898Z,11.00
2018-08-10T05:33:14.178Z,11.50
2018-08-10T05:35:44.148Z,12.73
2018-08-10T05:38:13.657Z,7.07
2018-08-10T05:40:43.216Z,15.23
2018-08-10T05:43:12.472Z,7.97
2018-08-10T05:45:42.082Z,13.13
2018-08-10T05:48:11.438Z,14.60
2018-08-10T05:50:40.813Z,13.17
2018-08-10T05:53:10.474Z,18.50
2018-08-10T05:55:40.279Z,10.43
2018-08-10T05:58:12.901Z,13.53
2018-08-10T06:00:54.716Z,12.17
2018-08-10T06:03:32.528Z,15.90
2018-08-10T06:06:04.431Z,11.10
2018-08-10T06:08:34.379Z,9.93
2018-08-10T06:11:03.776Z,6.73
2018-08-10T06:13:33.546Z,21.10
2018-08-10T06:16:03.005Z,10.33
2018-08-10T06:18:32.548Z,14.03
2018-08-10T06:21:02.133Z,12.33
2018-08-10T06:23:36.169Z,8.93
2018-08-10T06:26:05.885Z,12.07
2018-08-10T06:28:35.390Z,11.70
2018-08-10T06:31:04.855Z,11.20
2018-08-10T06:33:34.249Z,15.47
2018-08-10T06:36:03.656Z,10.63
2018-08-10T06:38:33.131Z,6.17
2018-08-10T06:41:02.829Z,12.07
2018-08-10T06:43:32.324Z,13.90
2018-08-10T06:46:01.830Z,10.27
2018-08-10T06:48:31.194Z,15.03
2018-08-10T06:51:00.963Z,10.10
2018-08-10T06:53:30.345Z,13.43
2018-08-10T06:55:59.844Z,6.03
2018-08-10T06:58:29.417Z,19.37
2018-08-10T07:00:59.098Z,20.17
2018-08-10T07:03:28.261Z,19.33
2018-08-10T07:05:58.313Z,17.83
2018-08-10T07:08:27.517Z,12.93
2018-08-10T07:10:56.995Z,10.47
2018-08-10T07:13:26.440Z,19.63
2018-08-10T07:15:56.140Z,20.33
2018-08-10T07:18:25.800Z,7.90
2018-08-10T07:20:55.508Z,13.07
2018-08-10T07:23:24.913Z,10.97
2018-08-10T07:25:57.855Z,17.33
2018-08-10T07:28:27.319Z,8.53
2018-08-10T07:30:57.629Z,16.13
2018-08-10T07:33:27.000Z,29.73
2018-08-10T07:35:56.696Z,14.27
2018-08-10T07:38:26.189Z,17.33
2018-08-10T07:41:58.936Z,22.40
2018-08-10T07:44:28.870Z,9.63
2018-08-10T07:46:58.655Z,7.43
2018-08-10T07:49:28.643Z,10.43
2018-08-10T07:51:58.302Z,9.40
2018-08-10T07:54:28.591Z,11.90
2018-08-10T07:56:58.267Z,12.67
2018-08-10T07:59:28.061Z,8.30
2018-08-10T08:01:57.393Z,9.73
2018-08-10T08:04:26.806Z,12.17
2018-08-10T08:06:56.482Z,7.40
2018-08-10T08:09:26.619Z,13.60
2018-08-10T08:11:56.149Z,7.63
2018-08-10T08:14:25.547Z,7.50
2018-08-10T08:16:55.029Z,16.83
2018-08-10T08:19:24.517Z,13.10
2018-08-10T08:22:08.756Z,10.70
2018-08-10T08:24:38.931Z,18.93
2018-08-10T08:27:10.035Z,14.10
2018-08-10T08:29:54.010Z,8.00
2018-08-10T08:32:23.349Z,11.87
2018-08-10T08:34:53.149Z,5.27
2018-08-10T08:37:22.917Z,10.67
2018-08-10T08:40:03.937Z,17.40
2018-08-10T08:42:33.522Z,14.50
2018-08-10T08:46:11.220Z,12.23
2018-08-10T08:48:44.435Z,9.80
2018-08-10T08:51:16.308Z,13.77
2018-08-10T08:53:46.286Z,17.37
2018-08-10T08:56:19.920Z,8.00
2018-08-10T08:58:55.387Z,5.20
2018-08-10T09:01:28.419Z,13.27
2018-08-10T09:05:09.185Z,9.23
2018-08-10T09:07:42.646Z,7.23
2018-08-10T09:10:15.743Z,6.50
2018-08-10T09:12:45.919Z,12.67
2018-08-10T09:15:17.293Z,8.80
2018-08-10T09:17:47.268Z,11.80
2018-08-10T09:20:21.202Z,6.33
2018-08-10T09:22:54.863Z,7.53
2018-08-10T09:25:31.425Z,10.90
2018-08-10T09:28:13.266Z,10.00
2018-08-10T09:30:43.408Z,6.97
2018-08-10T09:33:14.490Z,7.63
2018-08-10T09:35:44.593Z,13.33
2018-08-10T09:38:14.051Z,6.50
2018-08-10T09:40:43.868Z,8.23
2018-08-10T09:43:13.875Z,8.57
2018-08-10T09:45:43.617Z,11.80
2018-08-10T09:48:13.333Z,8.50
2018-08-10T09:50:43.511Z,5.60
2018-08-10T09:53:13.255Z,13.00
2018-08-10T09:55:42.945Z,6.37
2018-08-10T09:58:17.285Z,10.10
2018-08-10T10:00:52.333Z,25.43
2018-08-10T10:03:27.105Z,8.87
2018-08-10T10:06:08.300Z,10.43
2018-08-10T10:08:47.031Z,9.57
2018-08-10T10:11:18.212Z,12.37
2018-08-10T10:13:47.815Z,14.47
2018-08-10T10:16:18.722Z,20.20
2018-08-10T10:18:48.491Z,7.07
2018-08-10T10:21:20.685Z,10.20
2018-08-10T10:23:52.436Z,7.27
2018-08-10T10:26:26.566Z,30.47
2018-08-10T10:29:01.295Z,9.97
2018-08-10T10:31:35.514Z,8.13
2018-08-10T10:34:14.370Z,11.23
2018-08-10T10:36:51.465Z,8.33
2018-08-10T10:39:29.591Z,10.83
2018-08-10T10:41:59.290Z,9.63
2018-08-10T10:44:28.839Z,21.73
2018-08-10T10:47:02.171Z,7.93
2018-08-10T10:49:32.504Z,3.47
2018-08-10T10:52:03.938Z,9.47
2018-08-10T10:54:35.448Z,4.40
2018-08-10T10:57:05.334Z,4.27
2018-08-10T10:59:36.324Z,8.50
2018-08-10T11:02:06.672Z,5.53
2018-08-10T11:04:36.211Z,8.30
2018-08-10T11:07:05.861Z,6.93
2018-08-10T11:09:35.396Z,7.17
2018-08-10T11:12:05.051Z,4.50
2018-08-10T11:14:35.139Z,7.37
2018-08-10T11:17:04.983Z,8.83
2018-08-10T11:19:36.629Z,5.90
2018-08-10T11:22:09.241Z,10.03
2018-08-10T11:24:41.391Z,4.53
2018-08-10T11:27:12.295Z,10.53
2018-08-10T11:29:43.866Z,5.80
2018-08-10T11:32:13.835Z,8.17
2018-08-10T11:34:43.483Z,15.03
2018-08-10T11:37:13.075Z,6.50
2018-08-10T11:39:42.947Z,16.87
2018-08-10T11:42:17.621Z,5.77
2018-08-10T11:44:47.928Z,11.63
2018-08-10T11:47:17.814Z,8.20
2018-08-10T11:49:48.578Z,4.37
2018-08-10T11:52:18.112Z,17.40
2018-08-10T11:54:47.552Z,5.83
2018-08-10T11:57:17.754Z,8.97
2018-08-10T11:59:47.203Z,6.90
2018-08-10T12:02:20.188Z,12.20
2018-08-10T12:04:51.289Z,13.93
2018-08-10T12:07:22.267Z,60.17
2018-08-10T12:10:01.001Z,14.40
2018-08-10T12:12:31.551Z,6.93
2018-08-10T12:15:01.733Z,7.20
2018-08-10T12:17:31.710Z,12.43
2018-08-10T12:20:01.672Z,4.37
2018-08-10T12:22:32.279Z,7.73
2018-08-10T12:25:02.453Z,3.97
2018-08-10T12:27:32.581Z,3.93
2018-08-10T12:30:03.278Z,9.70
2018-08-10T12:32:33.597Z,4.70
2018-08-10T12:35:04.287Z,5.97
2018-08-10T12:37:34.485Z,22.60
2018-08-10T12:40:11.016Z,30.77
2018-08-10T12:42:45.679Z,16.93
2018-08-10T12:45:19.823Z,11.27
2018-08-10T12:47:51.663Z,4.83
2018-08-10T12:50:23.193Z,7.63
2018-08-10T12:52:56.366Z,11.03
2018-08-10T12:55:30.459Z,7.53
2018-08-10T12:58:02.576Z,4.93
2018-08-10T13:00:32.126Z,6.60
2018-08-10T13:03:01.675Z,4.33
2018-08-10T13:05:32.002Z,8.60
2018-08-10T13:08:02.236Z,4.77
2018-08-10T13:10:32.318Z,6.03
2018-08-10T13:13:04.245Z,5.50
2018-08-10T13:15:34.105Z,7.67
2018-08-10T13:18:04.003Z,4.53
2018-08-10T13:20:35.803Z,5.57
2018-08-10T13:23:05.665Z,2.50
2018-08-10T13:25:36.152Z,5.03
2018-08-10T13:28:13.185Z,4.80
2018-08-10T13:30:52.295Z,14.50
2018-08-10T13:33:25.971Z,9.37
2018-08-10T13:35:55.751Z,6.87
2018-08-10T13:38:27.455Z,10.87
2018-08-10T13:40:57.260Z,5.83
2018-08-10T13:43:27.776Z,5.60
2018-08-10T13:45:57.262Z,4.93
2018-08-10T13:48:28.292Z,5.53
2018-08-10T13:50:59.524Z,7.07
2018-08-10T13:53:29.763Z,10.63
2018-08-10T13:55:59.802Z,6.90
2018-08-10T13:58:29.443Z,5.30
2018-08-10T14:00:59.367Z,11.43
2018-08-10T14:03:40.080Z,4.70
2018-08-10T14:06:24.114Z,7.33
2018-08-10T14:08:55.616Z,12.30
2018-08-10T14:11:25.561Z,8.33
2018-08-10T14:13:55.976Z,5.53
2018-08-10T14:16:26.318Z,5.40
2018-08-10T14:18:56.093Z,4.90
2018-08-10T14:21:27.565Z,10.40
2018-08-10T14:23:57.881Z,9.57
2018-08-10T14:26:31.929Z,3.30
2018-08-10T14:29:05.073Z,6.57
2018-08-10T14:31:42.426Z,5.17
2018-08-10T14:34:16.385Z,5.87
2018-08-10T14:36:47.393Z,6.10
2018-08-10T14:41:54.543Z,7.23
2018-08-10T14:44:24.327Z,7.10
2018-08-10T14:46:57.283Z,7.47
2018-08-10T14:49:27.151Z,7.00
2018-08-10T14:52:00.963Z,12.80
2018-08-10T14:54:32.133Z,10.07
2018-08-10T14:57:15.688Z,7.03
2018-08-10T14:59:59.528Z,4.33
2018-08-10T15:02:29.877Z,9.70
2018-08-10T15:05:01.899Z,6.93
2018-08-10T15:07:31.615Z,8.63
2018-08-10T15:10:02.603Z,8.60
2018-08-10T15:12:33.884Z,6.03
2018-08-10T15:15:03.799Z,6.00
2018-08-10T15:17:33.770Z,4.87
2018-08-10T15:20:06.397Z,8.37
2018-08-10T15:22:37.102Z,18.10
2018-08-10T15:25:24.130Z,9.30
2018-08-10T15:27:54.123Z,3.43
2018-08-10T15:30:24.200Z,3.90
2018-08-10T15:32:54.808Z,9.77
2018-08-10T15:35:24.448Z,8.80
2018-08-10T15:37:54.440Z,8.77
2018-08-10T15:40:24.541Z,6.20
2018-08-10T15:42:54.347Z,4.60
2018-08-10T15:45:37.474Z,3.80
2018-08-10T15:48:17.474Z,4.43
2018-08-10T15:50:54.848Z,4.40
2018-08-10T15:53:31.213Z,18.07
2018-08-10T15:56:02.013Z,5.70
2018-08-10T15:58:33.025Z,6.33
2018-08-10T16:01:03.166Z,10.00
2018-08-10T16:03:33.035Z,8.10
2018-08-10T16:06:04.310Z,8.97
2018-08-10T16:08:46.633Z,4.93
2018-08-10T16:11:32.640Z,6.97
2018-08-10T16:14:06.863Z,4.87
2018-08-10T16:16:36.806Z,8.27
2018-08-10T16:19:07.251Z,7.00
2018-08-10T16:21:37.650Z,4.47
2018-08-10T16:24:17.431Z,14.17
2018-08-10T16:26:49.022Z,6.47
2018-08-10T16:29:20.708Z,6.80
2018-08-10T16:32:12.915Z,10.50
2018-08-10T16:35:06.511Z,62.87
2018-08-10T16:37:50.812Z,17.73
2018-08-10T16:40:24.463Z,15.13
2018-08-10T16:42:54.573Z,24.23
2018-08-10T16:45:24.848Z,20.57
2018-08-10T16:47:54.774Z,31.90
2018-08-10T16:50:34.046Z,24.67
2018-08-10T16:53:22.589Z,14.80
2018-08-10T16:55:52.576Z,66.43
2018-08-10T16:58:23.348Z,24.53
2018-08-10T17:00:53.657Z,26.37
2018-08-10T17:03:23.483Z,40.27
2018-08-10T17:05:53.323Z,33.33
2018-08-10T17:08:23.152Z,18.63
2018-08-10T17:10:52.779Z,24.73
2018-08-10T17:13:22.253Z,11.17
2018-08-10T17:15:53.683Z,21.47
2018-08-10T17:18:28.919Z,22.57
2018-08-10T17:21:17.389Z,46.83
2018-08-10T17:24:04.592Z,34.50
2018-08-10T17:26:40.128Z,22.17
2018-08-10T17:29:10.328Z,26.40
2018-08-10T17:31:40.225Z,26.33
2018-08-10T17:34:09.762Z,7.77
2018-08-10T17:36:49.494Z,24.40
2018-08-10T17:39:19.873Z,17.67
2018-08-10T17:41:50.240Z,35.80
2018-08-10T17:44:21.467Z,54.63
2018-08-10T17:46:51.551Z,14.37
2018-08-10T17:49:26.801Z,16.80
2018-08-10T17:51:56.611Z,14.13
2018-08-10T17:54:30.549Z,21.00
2018-08-10T17:57:03.078Z,20.97
2018-08-10T17:59:34.690Z,44.83
2018-08-10T18:02:05.304Z,70.17
2018-08-10T18:04:36.403Z,70.47
2018-08-10T18:07:07.912Z,55.83
2018-08-10T18:09:37.602Z,67.03
2018-08-10T18:12:17.281Z,44.10
2018-08-10T18:14:48.007Z,15.40
2018-08-10T18:17:27.675Z,16.97
2018-08-10T18:20:07.618Z,48.27
2018-08-10T18:23:05.094Z,67.00
2018-08-10T18:26:01.889Z,47.47
2018-08-10T18:28:39.036Z,36.60
2018-08-10T18:31:25.202Z,54.47
2018-08-10T18:34:05.467Z,29.83
2018-08-10T18:36:36.252Z,107.13
2018-08-10T18:39:15.303Z,58.17
2018-08-10T18:41:46.367Z,33.47
2018-08-10T18:44:18.957Z,32.40
2018-08-10T18:46:51.098Z,98.97
2018-08-10T18:49:31.129Z,94.40
2018-08-10T18:52:01.350Z,91.70
2018-08-10T18:54:37.336Z,93.67
2018-08-10T18:57:15.872Z,65.53
2018-08-10T19:00:00.885Z,134.67
2018-08-10T19:02:32.516Z,63.80
2018-08-10T19:05:09.486Z,138.97
2018-08-10T19:07:50.574Z,75.37
2018-08-10T19:10:30.846Z,88.47
2018-08-10T19:13:01.176Z,45.70
2018-08-10T19:15:37.361Z,32.37
2018-08-10T19:18:16.383Z,34.43
2018-08-10T19:20:53.882Z,51.47
2018-08-10T19:23:24.280Z,71.70
2018-08-10T19:26:12.716Z,66.53
2018-08-10T19:28:47.942Z,85.40
2018-08-10T19:31:18.282Z,59.23
2018-08-10T19:34:02.608Z,54.17
2018-08-10T19:36:53.375Z,112.53
2018-08-10T19:39:41.687Z,15.23
2018-08-10T19:42:28.222Z,14.97
2018-08-10T19:45:03.881Z,19.90
2018-08-10T19:47:52.819Z,25.07
2018-08-10T19:50:28.256Z,87.40
2018-08-10T19:53:02.124Z,39.40
2018-08-10T19:55:32.497Z,158.37
2018-08-10T19:58:09.013Z,206.87
2018-08-10T20:00:38.704Z,177.70
2018-08-10T20:03:08.356Z,174.03
2018-08-10T20:05:38.153Z,104.07
2018-08-10T20:08:08.210Z,345.23
2018-08-10T20:10:38.233Z,66.90
2018-08-10T20:13:08.467Z,142.40
2018-08-10T20:15:51.242Z,93.70
2018-08-10T20:18:27.409Z,79.57
2018-08-10T20:20:59.740Z,74.77
2018-08-10T20:23:30.265Z,53.97
2018-08-10T20:26:02.951Z,29.87
2018-08-10T20:28:43.672Z,39.83
2018-08-10T20:31:26.376Z,92.73
2018-08-10T20:33:56.661Z,21.60
2018-08-10T20:36:28.850Z,35.00
2018-08-10T20:39:00.288Z,67.90
2018-08-10T20:41:30.128Z,56.70
2018-08-10T20:44:02.863Z,50.67
2018-08-10T20:46:36.539Z,56.37
2018-08-10T20:49:06.642Z,25.00
2018-08-10T20:51:40.149Z,64.20
2018-08-10T20:54:10.444Z,32.50
2018-08-10T20:56:46.374Z,86.83
2018-08-10T20:59:17.082Z,54.60
2018-08-10T21:01:46.988Z,15.53
2018-08-10T21:04:24.106Z,23.87
2018-08-10T21:07:00.453Z,30.57
2018-08-10T21:12:33.764Z,21.03
2018-08-10T21:15:05.106Z,51.23
2018-08-10T21:17:34.632Z,40.80
2018-08-10T21:20:08.195Z,40.10
2018-08-10T21:22:55.967Z,51.87
2018-08-10T21:25:25.795Z,101.23
2018-08-10T21:27:55.812Z,44.10
2018-08-10T21:30:25.668Z,14.63
2018-08-10T21:32:55.621Z,44.07
2018-08-10T21:35:25.512Z,66.97
2018-08-10T21:37:55.439Z,96.37
2018-08-10T21:40:27.073Z,56.80
2018-08-10T21:43:05.416Z,54.27
2018-08-10T21:45:35.203Z,131.33
2018-08-10T21:48:05.137Z,78.73
2018-08-10T21:50:35.506Z,116.43
2018-08-10T21:53:05.902Z,67.87
2018-08-10T21:55:36.534Z,77.97
2018-08-10T21:58:07.491Z,97.90
2018-08-10T22:00:53.200Z,57.60
2018-08-10T22:03:32.703Z,161.20
2018-08-10T22:06:16.536Z,33.20
2018-08-10T22:08:52.248Z,23.80
2018-08-10T22:11:23.351Z,35.23
2018-08-10T22:37:37.920Z,64.37
2018-08-10T22:40:40.480Z,88.77
2018-08-10T23:06:07.320Z,71.63
2018-08-10T23:09:04.183Z,140.20
2018-08-10T23:24:25.535Z,59.57
2018-08-10T23:26:58.816Z,67.20
2018-08-10T23:29:30.891Z,45.37
2018-08-10T23:32:08.256Z,30.53
2018-08-10T23:37:45.026Z,122.40
2018-08-10T23:40:22.851Z,33.90
2018-08-10T23:43:22.188Z,68.20
2018-08-10T23:46:10.539Z,97.87
2018-08-10T23:49:09.576Z,80.73
2018-08-10T23:52:03.470Z,55.33
